sensor_id;sensor_type;location;lat;lon;timestamp;temperature;humidity
22779;DHT22;11556;51.194;3.800;2023-02-07T00:00:29;2.70;99.90
22779;DHT22;11556;51.194;3.800;2023-02-07T00:02:55;2.80;99.90
22779;DHT22;11556;51.194;3.800;2023-02-07T00:05:22;2.60;99.90
22779;DHT22;11556;51.194;3.800;2023-02-07T00:07:47;2.50;99.90
22779;DHT22;11556;51.194;3.800;2023-02-07T00:10:15;2.50;99.90
22779;DHT22;11556;51.194;3.800;2023-02-07T00:12:41;2.40;99.90
22779;DHT22;11556;51.194;3.800;2023-02-07T00:15:08;2.40;99.90
22779;DHT22;11556;51.194;3.800;2023-02-07T00:17:34;2.40;99.90
22779;DHT22;11556;51.194;3.800;2023-02-07T00:19:59;2.50;99.90
22779;DHT22;11556;51.194;3.800;2023-02-07T00:22:25;2.60;99.90
22779;DHT22;11556;51.194;3.800;2023-02-07T00:24:51;2.70;99.90
22779;DHT22;11556;51.194;3.800;2023-02-07T00:27:17;2.70;99.90
22779;DHT22;11556;51.194;3.800;2023-02-07T00:29:42;2.70;99.90
22779;DHT22;11556;51.194;3.800;2023-02-07T00:32:08;2.60;99.90
22779;DHT22;11556;51.194;3.800;2023-02-07T00:34:34;2.60;99.90
22779;DHT22;11556;51.194;3.800;2023-02-07T00:37:02;2.40;99.90
22779;DHT22;11556;51.194;3.800;2023-02-07T00:39:29;2.40;99.90
22779;DHT22;11556;51.194;3.800;2023-02-07T00:41:55;2.50;99.90
22779;DHT22;11556;51.194;3.800;2023-02-07T00:44:20;2.40;99.90
22779;DHT22;11556;51.194;3.800;2023-02-07T00:46:46;2.40;99.90
22779;DHT22;11556;51.194;3.800;2023-02-07T00:49:12;2.30;99.90
22779;DHT22;11556;51.194;3.800;2023-02-07T00:51:37;2.30;99.90
22779;DHT22;11556;51.194;3.800;2023-02-07T00:54:03;2.40;99.90
22779;DHT22;11556;51.194;3.800;2023-02-07T00:56:29;2.40;99.90
22779;DHT22;11556;51.194;3.800;2023-02-07T00:58:56;2.40;99.90
22779;DHT22;11556;51.194;3.800;2023-02-07T01:01:23;2.40;99.90
22779;DHT22;11556;51.194;3.800;2023-02-07T01:03:49;2.30;99.90
22779;DHT22;11556;51.194;3.800;2023-02-07T01:06:15;2.20;99.90
22779;DHT22;11556;51.194;3.800;2023-02-07T01:08:41;2.20;99.90
22779;DHT22;11556;51.194;3.800;2023-02-07T01:11:12;2.10;99.90
22779;DHT22;11556;51.194;3.800;2023-02-07T01:13:39;2.10;99.90
22779;DHT22;11556;51.194;3.800;2023-02-07T01:16:25;2.00;99.90
22779;DHT22;11556;51.194;3.800;2023-02-07T01:18:51;2.10;99.90
22779;DHT22;11556;51.194;3.800;2023-02-07T01:21:19;2.10;99.90
22779;DHT22;11556;51.194;3.800;2023-02-07T01:23:46;2.10;99.90
22779;DHT22;11556;51.194;3.800;2023-02-07T01:26:11;2.00;99.90
22779;DHT22;11556;51.194;3.800;2023-02-07T01:28:37;2.00;99.90
22779;DHT22;11556;51.194;3.800;2023-02-07T01:31:11;2.10;99.90
22779;DHT22;11556;51.194;3.800;2023-02-07T01:33:37;2.10;99.90
22779;DHT22;11556;51.194;3.800;2023-02-07T01:36:11;2.00;99.90
22779;DHT22;11556;51.194;3.800;2023-02-07T01:38:39;2.00;99.90
22779;DHT22;11556;51.194;3.800;2023-02-07T01:41:05;2.00;99.90
22779;DHT22;11556;51.194;3.800;2023-02-07T01:43:31;2.00;99.90
22779;DHT22;11556;51.194;3.800;2023-02-07T01:45:57;2.00;99.90
22779;DHT22;11556;51.194;3.800;2023-02-07T01:48:27;2.00;99.90
22779;DHT22;11556;51.194;3.800;2023-02-07T01:50:56;1.90;99.90
22779;DHT22;11556;51.194;3.800;2023-02-07T01:53:26;1.90;99.90
22779;DHT22;11556;51.194;3.800;2023-02-07T01:55:56;1.90;99.90
22779;DHT22;11556;51.194;3.800;2023-02-07T01:58:23;1.80;99.90
22779;DHT22;11556;51.194;3.800;2023-02-07T02:00:50;1.80;99.90
22779;DHT22;11556;51.194;3.800;2023-02-07T02:03:16;1.80;99.90
22779;DHT22;11556;51.194;3.800;2023-02-07T02:05:43;1.80;99.90
22779;DHT22;11556;51.194;3.800;2023-02-07T02:08:10;1.80;99.90
22779;DHT22;11556;51.194;3.800;2023-02-07T02:27:09;1.80;99.90
22779;DHT22;11556;51.194;3.800;2023-02-07T02:42:58;2.00;99.90
22779;DHT22;11556;51.194;3.800;2023-02-07T02:45:29;2.00;99.90
22779;DHT22;11556;51.194;3.800;2023-02-07T02:47:57;2.00;99.90
22779;DHT22;11556;51.194;3.800;2023-02-07T02:50:28;2.00;99.90
22779;DHT22;11556;51.194;3.800;2023-02-07T02:52:55;2.10;99.90
22779;DHT22;11556;51.194;3.800;2023-02-07T02:55:45;2.10;99.90
22779;DHT22;11556;51.194;3.800;2023-02-07T03:06:32;2.20;99.90
22779;DHT22;11556;51.194;3.800;2023-02-07T03:09:21;2.20;99.90
22779;DHT22;11556;51.194;3.800;2023-02-07T03:11:57;2.10;99.90
22779;DHT22;11556;51.194;3.800;2023-02-07T03:15:13;2.10;99.90
22779;DHT22;11556;51.194;3.800;2023-02-07T03:18:03;2.10;99.90
22779;DHT22;11556;51.194;3.800;2023-02-07T03:20:38;2.10;99.90
22779;DHT22;11556;51.194;3.800;2023-02-07T03:23:05;2.00;99.90
22779;DHT22;11556;51.194;3.800;2023-02-07T03:25:32;2.00;99.90
22779;DHT22;11556;51.194;3.800;2023-02-07T03:27:59;2.00;99.90
22779;DHT22;11556;51.194;3.800;2023-02-07T03:30:29;2.00;99.90
22779;DHT22;11556;51.194;3.800;2023-02-07T03:32:58;2.00;99.90
22779;DHT22;11556;51.194;3.800;2023-02-07T03:35:46;2.00;99.90
22779;DHT22;11556;51.194;3.800;2023-02-07T03:38:14;2.00;99.90
22779;DHT22;11556;51.194;3.800;2023-02-07T03:40:44;1.90;99.90
22779;DHT22;11556;51.194;3.800;2023-02-07T03:43:29;1.90;99.90
22779;DHT22;11556;51.194;3.800;2023-02-07T03:45:56;1.90;99.90
22779;DHT22;11556;51.194;3.800;2023-02-07T03:48:22;1.80;99.90
22779;DHT22;11556;51.194;3.800;2023-02-07T03:50:48;1.70;99.90
22779;DHT22;11556;51.194;3.800;2023-02-07T03:53:16;1.70;99.90
22779;DHT22;11556;51.194;3.800;2023-02-07T03:55:42;1.70;99.90
22779;DHT22;11556;51.194;3.800;2023-02-07T03:58:08;1.70;99.90
22779;DHT22;11556;51.194;3.800;2023-02-07T04:00:34;1.50;99.90
22779;DHT22;11556;51.194;3.800;2023-02-07T04:03:00;1.50;99.90
22779;DHT22;11556;51.194;3.800;2023-02-07T04:05:26;1.50;99.90
22779;DHT22;11556;51.194;3.800;2023-02-07T04:07:52;1.50;99.90
22779;DHT22;11556;51.194;3.800;2023-02-07T04:10:17;1.50;99.90
22779;DHT22;11556;51.194;3.800;2023-02-07T04:12:43;1.50;99.90
22779;DHT22;11556;51.194;3.800;2023-02-07T04:15:09;1.50;99.90
22779;DHT22;11556;51.194;3.800;2023-02-07T04:17:35;1.40;99.90
22779;DHT22;11556;51.194;3.800;2023-02-07T04:20:01;1.40;99.90
22779;DHT22;11556;51.194;3.800;2023-02-07T04:22:28;1.40;99.90
22779;DHT22;11556;51.194;3.800;2023-02-07T04:24:53;1.30;99.90
22779;DHT22;11556;51.194;3.800;2023-02-07T04:27:19;1.30;99.90
22779;DHT22;11556;51.194;3.800;2023-02-07T04:29:45;1.40;99.90
22779;DHT22;11556;51.194;3.800;2023-02-07T04:32:10;1.40;99.90
22779;DHT22;11556;51.194;3.800;2023-02-07T04:34:36;1.40;99.90
22779;DHT22;11556;51.194;3.800;2023-02-07T04:37:02;1.40;99.90
22779;DHT22;11556;51.194;3.800;2023-02-07T04:39:27;1.40;99.90
22779;DHT22;11556;51.194;3.800;2023-02-07T04:41:53;1.40;99.90
22779;DHT22;11556;51.194;3.800;2023-02-07T04:44:19;1.50;99.90
22779;DHT22;11556;51.194;3.800;2023-02-07T04:46:44;1.40;99.90
22779;DHT22;11556;51.194;3.800;2023-02-07T04:49:10;1.40;99.90
22779;DHT22;11556;51.194;3.800;2023-02-07T04:51:36;1.40;99.90
22779;DHT22;11556;51.194;3.800;2023-02-07T04:54:01;1.40;99.90
22779;DHT22;11556;51.194;3.800;2023-02-07T04:56:27;1.30;99.90
22779;DHT22;11556;51.194;3.800;2023-02-07T04:58:53;1.30;99.90
22779;DHT22;11556;51.194;3.800;2023-02-07T05:01:18;1.30;99.90
22779;DHT22;11556;51.194;3.800;2023-02-07T05:03:44;1.30;99.90
22779;DHT22;11556;51.194;3.800;2023-02-07T05:06:09;1.30;99.90
22779;DHT22;11556;51.194;3.800;2023-02-07T05:08:36;1.30;99.90
22779;DHT22;11556;51.194;3.800;2023-02-07T05:11:02;1.30;99.90
22779;DHT22;11556;51.194;3.800;2023-02-07T05:13:28;1.30;99.90
22779;DHT22;11556;51.194;3.800;2023-02-07T05:15:54;1.30;99.90
22779;DHT22;11556;51.194;3.800;2023-02-07T05:18:19;1.30;99.90
22779;DHT22;11556;51.194;3.800;2023-02-07T05:20:46;1.40;99.90
22779;DHT22;11556;51.194;3.800;2023-02-07T05:23:11;1.40;99.90
22779;DHT22;11556;51.194;3.800;2023-02-07T05:25:37;1.40;99.90
22779;DHT22;11556;51.194;3.800;2023-02-07T05:28:05;1.30;99.90
22779;DHT22;11556;51.194;3.800;2023-02-07T05:30:30;1.30;99.90
22779;DHT22;11556;51.194;3.800;2023-02-07T05:32:56;1.40;99.90
22779;DHT22;11556;51.194;3.800;2023-02-07T05:35:40;1.30;99.90
22779;DHT22;11556;51.194;3.800;2023-02-07T05:38:09;1.30;99.90
22779;DHT22;11556;51.194;3.800;2023-02-07T05:40:36;1.30;99.90
22779;DHT22;11556;51.194;3.800;2023-02-07T05:43:02;1.30;99.90
22779;DHT22;11556;51.194;3.800;2023-02-07T05:45:28;1.40;99.90
22779;DHT22;11556;51.194;3.800;2023-02-07T05:47:54;1.40;99.90
22779;DHT22;11556;51.194;3.800;2023-02-07T05:50:19;1.40;99.90
22779;DHT22;11556;51.194;3.800;2023-02-07T05:52:45;1.40;99.90
22779;DHT22;11556;51.194;3.800;2023-02-07T05:55:11;1.40;99.90
22779;DHT22;11556;51.194;3.800;2023-02-07T05:57:39;1.40;99.90
22779;DHT22;11556;51.194;3.800;2023-02-07T06:00:17;1.40;99.90
22779;DHT22;11556;51.194;3.800;2023-02-07T06:02:43;1.30;99.90
22779;DHT22;11556;51.194;3.800;2023-02-07T06:05:14;1.30;99.90
22779;DHT22;11556;51.194;3.800;2023-02-07T06:07:41;1.30;99.90
22779;DHT22;11556;51.194;3.800;2023-02-07T06:10:08;1.30;99.90
22779;DHT22;11556;51.194;3.800;2023-02-07T06:12:34;1.30;99.90
22779;DHT22;11556;51.194;3.800;2023-02-07T06:15:00;1.30;99.90
22779;DHT22;11556;51.194;3.800;2023-02-07T06:17:26;1.30;99.90
22779;DHT22;11556;51.194;3.800;2023-02-07T06:19:52;1.30;99.90
22779;DHT22;11556;51.194;3.800;2023-02-07T06:22:17;1.30;99.90
22779;DHT22;11556;51.194;3.800;2023-02-07T06:24:43;1.30;99.90
22779;DHT22;11556;51.194;3.800;2023-02-07T06:27:10;1.20;99.90
22779;DHT22;11556;51.194;3.800;2023-02-07T06:29:35;1.20;99.90
22779;DHT22;11556;51.194;3.800;2023-02-07T06:32:01;1.20;99.90
22779;DHT22;11556;51.194;3.800;2023-02-07T06:34:27;1.20;99.90
22779;DHT22;11556;51.194;3.800;2023-02-07T06:36:53;1.20;99.90
22779;DHT22;11556;51.194;3.800;2023-02-07T06:39:18;1.20;99.90
22779;DHT22;11556;51.194;3.800;2023-02-07T06:41:44;1.10;99.90
22779;DHT22;11556;51.194;3.800;2023-02-07T06:44:10;1.10;99.90
22779;DHT22;11556;51.194;3.800;2023-02-07T06:46:35;1.10;99.90
22779;DHT22;11556;51.194;3.800;2023-02-07T06:49:01;1.10;99.90
22779;DHT22;11556;51.194;3.800;2023-02-07T06:51:27;1.00;99.90
22779;DHT22;11556;51.194;3.800;2023-02-07T06:53:53;1.00;99.90
22779;DHT22;11556;51.194;3.800;2023-02-07T06:56:19;1.00;99.90
22779;DHT22;11556;51.194;3.800;2023-02-07T06:58:44;1.00;99.90
22779;DHT22;11556;51.194;3.800;2023-02-07T07:01:10;1.00;99.90
22779;DHT22;11556;51.194;3.800;2023-02-07T07:03:36;0.90;99.90
22779;DHT22;11556;51.194;3.800;2023-02-07T07:06:02;0.90;99.90
22779;DHT22;11556;51.194;3.800;2023-02-07T07:08:27;0.90;99.90
22779;DHT22;11556;51.194;3.800;2023-02-07T07:10:54;0.90;99.90
22779;DHT22;11556;51.194;3.800;2023-02-07T07:13:20;0.90;99.90
22779;DHT22;11556;51.194;3.800;2023-02-07T07:15:46;0.90;99.90
22779;DHT22;11556;51.194;3.800;2023-02-07T07:18:12;0.90;99.90
22779;DHT22;11556;51.194;3.800;2023-02-07T07:20:38;0.90;99.90
22779;DHT22;11556;51.194;3.800;2023-02-07T07:23:04;0.90;99.90
22779;DHT22;11556;51.194;3.800;2023-02-07T07:25:30;0.90;99.90
22779;DHT22;11556;51.194;3.800;2023-02-07T07:27:55;0.90;99.90
22779;DHT22;11556;51.194;3.800;2023-02-07T07:30:22;0.80;99.90
22779;DHT22;11556;51.194;3.800;2023-02-07T07:32:48;0.80;99.90
22779;DHT22;11556;51.194;3.800;2023-02-07T07:35:13;0.90;99.90
22779;DHT22;11556;51.194;3.800;2023-02-07T07:37:39;0.90;99.90
22779;DHT22;11556;51.194;3.800;2023-02-07T07:40:06;0.90;99.90
22779;DHT22;11556;51.194;3.800;2023-02-07T07:42:32;1.00;99.90
22779;DHT22;11556;51.194;3.800;2023-02-07T07:44:59;1.10;99.90
22779;DHT22;11556;51.194;3.800;2023-02-07T07:47:25;1.20;99.90
22779;DHT22;11556;51.194;3.800;2023-02-07T07:49:52;1.20;99.90
22779;DHT22;11556;51.194;3.800;2023-02-07T07:52:18;1.20;99.90
22779;DHT22;11556;51.194;3.800;2023-02-07T07:54:43;1.20;99.90
22779;DHT22;11556;51.194;3.800;2023-02-07T07:57:09;1.30;99.90
22779;DHT22;11556;51.194;3.800;2023-02-07T07:59:35;1.50;99.90
22779;DHT22;11556;51.194;3.800;2023-02-07T08:02:00;1.70;99.90
22779;DHT22;11556;51.194;3.800;2023-02-07T08:04:26;1.80;99.90
22779;DHT22;11556;51.194;3.800;2023-02-07T08:06:51;1.80;99.90
22779;DHT22;11556;51.194;3.800;2023-02-07T08:09:17;1.90;99.90
22779;DHT22;11556;51.194;3.800;2023-02-07T08:11:43;1.90;99.90
22779;DHT22;11556;51.194;3.800;2023-02-07T08:14:08;2.20;99.90
22779;DHT22;11556;51.194;3.800;2023-02-07T08:16:34;2.60;99.90
22779;DHT22;11556;51.194;3.800;2023-02-07T08:18:59;3.00;99.90
22779;DHT22;11556;51.194;3.800;2023-02-07T08:21:25;3.10;99.90
22779;DHT22;11556;51.194;3.800;2023-02-07T08:23:51;3.30;99.90
22779;DHT22;11556;51.194;3.800;2023-02-07T08:26:17;3.80;99.90
22779;DHT22;11556;51.194;3.800;2023-02-07T08:28:43;3.80;99.90
22779;DHT22;11556;51.194;3.800;2023-02-07T08:31:08;3.80;99.90
22779;DHT22;11556;51.194;3.800;2023-02-07T08:33:35;3.80;99.90
22779;DHT22;11556;51.194;3.800;2023-02-07T08:36:00;4.00;99.90
22779;DHT22;11556;51.194;3.800;2023-02-07T08:38:26;4.40;99.90
22779;DHT22;11556;51.194;3.800;2023-02-07T08:40:52;4.40;99.90
22779;DHT22;11556;51.194;3.800;2023-02-07T08:43:17;4.00;99.90
22779;DHT22;11556;51.194;3.800;2023-02-07T08:45:47;3.80;99.90
22779;DHT22;11556;51.194;3.800;2023-02-07T08:48:13;3.50;99.90
22779;DHT22;11556;51.194;3.800;2023-02-07T08:50:38;3.60;99.90
22779;DHT22;11556;51.194;3.800;2023-02-07T08:53:04;3.60;99.90
22779;DHT22;11556;51.194;3.800;2023-02-07T08:55:30;3.50;99.90
22779;DHT22;11556;51.194;3.800;2023-02-07T08:57:55;3.30;99.90
22779;DHT22;11556;51.194;3.800;2023-02-07T09:00:21;3.50;99.90
22779;DHT22;11556;51.194;3.800;2023-02-07T09:02:47;3.70;99.90
22779;DHT22;11556;51.194;3.800;2023-02-07T09:05:13;4.30;99.90
22779;DHT22;11556;51.194;3.800;2023-02-07T09:07:38;5.30;99.90
22779;DHT22;11556;51.194;3.800;2023-02-07T09:10:06;6.30;99.90
22779;DHT22;11556;51.194;3.800;2023-02-07T09:12:32;7.00;99.90
22779;DHT22;11556;51.194;3.800;2023-02-07T09:14:58;7.80;99.90
22779;DHT22;11556;51.194;3.800;2023-02-07T09:17:24;8.60;99.90
22779;DHT22;11556;51.194;3.800;2023-02-07T09:19:50;9.00;99.90
22779;DHT22;11556;51.194;3.800;2023-02-07T09:22:15;8.40;99.90
22779;DHT22;11556;51.194;3.800;2023-02-07T09:24:41;8.30;99.90
22779;DHT22;11556;51.194;3.800;2023-02-07T09:27:07;7.60;99.90
22779;DHT22;11556;51.194;3.800;2023-02-07T09:29:33;7.80;99.90
22779;DHT22;11556;51.194;3.800;2023-02-07T09:31:59;8.60;99.90
22779;DHT22;11556;51.194;3.800;2023-02-07T09:34:24;9.10;99.90
22779;DHT22;11556;51.194;3.800;2023-02-07T09:36:51;9.80;99.90
22779;DHT22;11556;51.194;3.800;2023-02-07T09:39:18;11.00;99.90
22779;DHT22;11556;51.194;3.800;2023-02-07T09:45:12;11.50;99.90
22779;DHT22;11556;51.194;3.800;2023-02-07T09:47:43;10.70;99.90
22779;DHT22;11556;51.194;3.800;2023-02-07T09:50:17;9.90;99.90
22779;DHT22;11556;51.194;3.800;2023-02-07T09:52:56;10.30;99.90
22779;DHT22;11556;51.194;3.800;2023-02-07T09:55:25;9.90;99.90
22779;DHT22;11556;51.194;3.800;2023-02-07T09:57:56;9.20;99.90
22779;DHT22;11556;51.194;3.800;2023-02-07T10:00:28;8.10;99.90
22779;DHT22;11556;51.194;3.800;2023-02-07T10:05:44;7.30;99.90
22779;DHT22;11556;51.194;3.800;2023-02-07T10:08:18;7.20;99.90
22779;DHT22;11556;51.194;3.800;2023-02-07T10:21:53;5.80;99.90
22779;DHT22;11556;51.194;3.800;2023-02-07T10:27:30;6.30;99.90
22779;DHT22;11556;51.194;3.800;2023-02-07T10:30:26;6.30;99.90
22779;DHT22;11556;51.194;3.800;2023-02-07T10:32:53;6.00;99.90
22779;DHT22;11556;51.194;3.800;2023-02-07T10:35:33;5.30;99.90
22779;DHT22;11556;51.194;3.800;2023-02-07T10:38:00;5.20;99.90
22779;DHT22;11556;51.194;3.800;2023-02-07T10:40:38;5.00;99.90
22779;DHT22;11556;51.194;3.800;2023-02-07T10:43:16;4.80;99.90
22779;DHT22;11556;51.194;3.800;2023-02-07T10:45:45;4.50;99.90
22779;DHT22;11556;51.194;3.800;2023-02-07T10:48:15;4.60;99.90
22779;DHT22;11556;51.194;3.800;2023-02-07T10:50:41;4.60;99.90
22779;DHT22;11556;51.194;3.800;2023-02-07T10:53:07;4.40;99.90
22779;DHT22;11556;51.194;3.800;2023-02-07T10:55:40;4.10;99.90
22779;DHT22;11556;51.194;3.800;2023-02-07T10:58:08;3.90;99.90
22779;DHT22;11556;51.194;3.800;2023-02-07T11:00:37;3.80;99.90
22779;DHT22;11556;51.194;3.800;2023-02-07T11:03:05;4.10;99.90
22779;DHT22;11556;51.194;3.800;2023-02-07T11:05:36;4.50;99.90
22779;DHT22;11556;51.194;3.800;2023-02-07T11:08:18;4.80;99.90
22779;DHT22;11556;51.194;3.800;2023-02-07T11:10:48;5.00;99.90
22779;DHT22;11556;51.194;3.800;2023-02-07T11:13:19;5.10;99.90
22779;DHT22;11556;51.194;3.800;2023-02-07T11:16:05;5.30;99.90
22779;DHT22;11556;51.194;3.800;2023-02-07T11:18:41;5.00;99.90
22779;DHT22;11556;51.194;3.800;2023-02-07T11:21:53;5.50;99.90
22779;DHT22;11556;51.194;3.800;2023-02-07T11:24:16;6.80;99.90
22779;DHT22;11556;51.194;3.800;2023-02-07T11:26:56;8.60;99.90
22779;DHT22;11556;51.194;3.800;2023-02-07T11:29:24;10.70;99.90
22779;DHT22;11556;51.194;3.800;2023-02-07T11:31:52;11.50;99.90
22779;DHT22;11556;51.194;3.800;2023-02-07T11:39:40;12.60;99.90
22779;DHT22;11556;51.194;3.800;2023-02-07T11:42:16;13.30;99.90
22779;DHT22;11556;51.194;3.800;2023-02-07T11:44:43;14.20;99.90
22779;DHT22;11556;51.194;3.800;2023-02-07T11:47:14;14.70;99.90
22779;DHT22;11556;51.194;3.800;2023-02-07T11:49:43;15.00;99.60
22779;DHT22;11556;51.194;3.800;2023-02-07T11:52:10;16.00;95.70
22779;DHT22;11556;51.194;3.800;2023-02-07T11:54:38;16.10;94.80
22779;DHT22;11556;51.194;3.800;2023-02-07T11:57:11;16.10;93.40
22779;DHT22;11556;51.194;3.800;2023-02-07T12:00:00;16.20;92.20
22779;DHT22;11556;51.194;3.800;2023-02-07T12:02:28;16.10;91.20
22779;DHT22;11556;51.194;3.800;2023-02-07T12:04:54;15.20;91.80
22779;DHT22;11556;51.194;3.800;2023-02-07T12:07:37;14.20;93.90
22779;DHT22;11556;51.194;3.800;2023-02-07T12:10:13;14.00;94.20
22779;DHT22;11556;51.194;3.800;2023-02-07T12:15:16;14.90;92.90
22779;DHT22;11556;51.194;3.800;2023-02-07T12:18:04;14.40;94.30
22779;DHT22;11556;51.194;3.800;2023-02-07T12:20:39;16.00;91.80
22779;DHT22;11556;51.194;3.800;2023-02-07T12:23:14;17.30;89.90
22779;DHT22;11556;51.194;3.800;2023-02-07T12:25:51;18.20;80.60
22779;DHT22;11556;51.194;3.800;2023-02-07T12:28:27;18.60;75.00
22779;DHT22;11556;51.194;3.800;2023-02-07T12:30:57;18.90;72.30
22779;DHT22;11556;51.194;3.800;2023-02-07T12:33:32;18.90;72.90
22779;DHT22;11556;51.194;3.800;2023-02-07T12:41:21;19.00;70.60
22779;DHT22;11556;51.194;3.800;2023-02-07T12:52:23;18.30;72.60
22779;DHT22;11556;51.194;3.800;2023-02-07T12:58:25;17.50;74.30
22779;DHT22;11556;51.194;3.800;2023-02-07T13:03:28;18.30;66.90
22779;DHT22;11556;51.194;3.800;2023-02-07T13:08:46;14.20;75.00
22779;DHT22;11556;51.194;3.800;2023-02-07T13:11:27;12.10;84.20
22779;DHT22;11556;51.194;3.800;2023-02-07T13:16:41;13.80;84.30
22779;DHT22;11556;51.194;3.800;2023-02-07T13:19:17;12.50;89.00
22779;DHT22;11556;51.194;3.800;2023-02-07T13:24:39;11.50;94.80
22779;DHT22;11556;51.194;3.800;2023-02-07T13:27:13;12.00;94.60
22779;DHT22;11556;51.194;3.800;2023-02-07T13:29:41;11.00;96.20
22779;DHT22;11556;51.194;3.800;2023-02-07T13:32:19;11.20;96.10
22779;DHT22;11556;51.194;3.800;2023-02-07T13:35:09;11.80;95.70
22779;DHT22;11556;51.194;3.800;2023-02-07T13:37:50;11.20;98.80
22779;DHT22;11556;51.194;3.800;2023-02-07T13:48:43;10.70;99.90
22779;DHT22;11556;51.194;3.800;2023-02-07T13:51:23;11.40;99.50
22779;DHT22;11556;51.194;3.800;2023-02-07T13:56:58;10.10;99.90
22779;DHT22;11556;51.194;3.800;2023-02-07T13:59:43;10.00;99.90
22779;DHT22;11556;51.194;3.800;2023-02-07T14:02:28;9.80;99.90
22779;DHT22;11556;51.194;3.800;2023-02-07T14:04:57;9.10;99.90
22779;DHT22;11556;51.194;3.800;2023-02-07T14:07:32;8.60;99.90
22779;DHT22;11556;51.194;3.800;2023-02-07T14:10:01;8.30;99.90
22779;DHT22;11556;51.194;3.800;2023-02-07T14:12:38;8.00;99.90
22779;DHT22;11556;51.194;3.800;2023-02-07T14:18:02;7.40;99.90
22779;DHT22;11556;51.194;3.800;2023-02-07T14:25:37;7.60;99.90
22779;DHT22;11556;51.194;3.800;2023-02-07T14:30:58;7.70;99.90
22779;DHT22;11556;51.194;3.800;2023-02-07T14:33:34;8.50;99.90
22779;DHT22;11556;51.194;3.800;2023-02-07T14:38:40;8.90;99.90
22779;DHT22;11556;51.194;3.800;2023-02-07T14:41:11;9.40;99.90
22779;DHT22;11556;51.194;3.800;2023-02-07T14:43:53;9.90;99.90
22779;DHT22;11556;51.194;3.800;2023-02-07T14:46:47;10.00;99.90
22779;DHT22;11556;51.194;3.800;2023-02-07T14:49:41;9.20;99.90
22779;DHT22;11556;51.194;3.800;2023-02-07T14:52:14;9.90;99.90
22779;DHT22;11556;51.194;3.800;2023-02-07T15:02:41;8.10;99.90
22779;DHT22;11556;51.194;3.800;2023-02-07T15:12:54;8.40;99.90
22779;DHT22;11556;51.194;3.800;2023-02-07T15:15:27;8.90;99.90
22779;DHT22;11556;51.194;3.800;2023-02-07T15:17:56;9.40;99.90
22779;DHT22;11556;51.194;3.800;2023-02-07T15:20:31;9.40;99.90
22779;DHT22;11556;51.194;3.800;2023-02-07T15:22:59;8.70;99.90
22779;DHT22;11556;51.194;3.800;2023-02-07T15:25:26;8.20;99.90
22779;DHT22;11556;51.194;3.800;2023-02-07T15:28:16;7.60;99.90
22779;DHT22;11556;51.194;3.800;2023-02-07T15:31:02;7.40;99.90
22779;DHT22;11556;51.194;3.800;2023-02-07T15:33:36;7.70;99.90
22779;DHT22;11556;51.194;3.800;2023-02-07T15:36:24;7.80;99.90
22779;DHT22;11556;51.194;3.800;2023-02-07T15:38:50;7.60;99.90
22779;DHT22;11556;51.194;3.800;2023-02-07T15:41:16;7.60;99.90
22779;DHT22;11556;51.194;3.800;2023-02-07T15:46:22;7.20;99.90
22779;DHT22;11556;51.194;3.800;2023-02-07T15:48:51;6.80;99.90
22779;DHT22;11556;51.194;3.800;2023-02-07T15:51:21;6.60;99.90
22779;DHT22;11556;51.194;3.800;2023-02-07T15:53:54;6.40;99.90
22779;DHT22;11556;51.194;3.800;2023-02-07T15:56:20;6.30;99.90
22779;DHT22;11556;51.194;3.800;2023-02-07T15:58:47;6.20;99.90
22779;DHT22;11556;51.194;3.800;2023-02-07T16:01:31;6.20;99.90
22779;DHT22;11556;51.194;3.800;2023-02-07T16:03:56;6.10;99.90
22779;DHT22;11556;51.194;3.800;2023-02-07T16:06:27;6.00;99.90
22779;DHT22;11556;51.194;3.800;2023-02-07T16:08:55;5.90;99.90
22779;DHT22;11556;51.194;3.800;2023-02-07T16:16:39;6.40;99.90
22779;DHT22;11556;51.194;3.800;2023-02-07T16:19:19;6.50;99.90
22779;DHT22;11556;51.194;3.800;2023-02-07T16:21:50;6.30;99.90
22779;DHT22;11556;51.194;3.800;2023-02-07T16:24:21;6.50;99.90
22779;DHT22;11556;51.194;3.800;2023-02-07T16:26:48;6.40;99.90
22779;DHT22;11556;51.194;3.800;2023-02-07T16:29:21;6.20;99.90
22779;DHT22;11556;51.194;3.800;2023-02-07T16:31:47;5.60;99.90
22779;DHT22;11556;51.194;3.800;2023-02-07T16:34:15;5.10;99.90
22779;DHT22;11556;51.194;3.800;2023-02-07T16:36:42;4.80;99.90
22779;DHT22;11556;51.194;3.800;2023-02-07T16:39:08;4.70;99.90
22779;DHT22;11556;51.194;3.800;2023-02-07T16:41:37;4.60;99.90
22779;DHT22;11556;51.194;3.800;2023-02-07T16:44:07;4.50;99.90
22779;DHT22;11556;51.194;3.800;2023-02-07T16:46:35;4.50;99.90
22779;DHT22;11556;51.194;3.800;2023-02-07T16:49:00;4.40;99.90
22779;DHT22;11556;51.194;3.800;2023-02-07T16:51:26;4.40;99.90
22779;DHT22;11556;51.194;3.800;2023-02-07T16:53:52;4.30;99.90
22779;DHT22;11556;51.194;3.800;2023-02-07T16:56:23;4.20;99.90
22779;DHT22;11556;51.194;3.800;2023-02-07T16:58:50;4.20;99.90
22779;DHT22;11556;51.194;3.800;2023-02-07T17:01:18;4.20;99.90
22779;DHT22;11556;51.194;3.800;2023-02-07T17:03:44;4.20;99.90
22779;DHT22;11556;51.194;3.800;2023-02-07T17:06:18;4.20;99.90
22779;DHT22;11556;51.194;3.800;2023-02-07T17:08:45;4.10;99.90
22779;DHT22;11556;51.194;3.800;2023-02-07T17:11:17;4.00;99.90
22779;DHT22;11556;51.194;3.800;2023-02-07T17:13:45;4.00;99.90
22779;DHT22;11556;51.194;3.800;2023-02-07T17:16:13;3.90;99.90
22779;DHT22;11556;51.194;3.800;2023-02-07T17:18:40;3.90;99.90
22779;DHT22;11556;51.194;3.800;2023-02-07T17:21:06;3.80;99.90
22779;DHT22;11556;51.194;3.800;2023-02-07T17:23:34;3.80;99.90
22779;DHT22;11556;51.194;3.800;2023-02-07T17:26:00;3.80;99.90
22779;DHT22;11556;51.194;3.800;2023-02-07T17:28:25;3.80;99.90
22779;DHT22;11556;51.194;3.800;2023-02-07T17:30:51;3.70;99.90
22779;DHT22;11556;51.194;3.800;2023-02-07T17:33:19;3.70;99.90
22779;DHT22;11556;51.194;3.800;2023-02-07T17:35:44;3.60;99.90
22779;DHT22;11556;51.194;3.800;2023-02-07T17:38:10;3.60;99.90
22779;DHT22;11556;51.194;3.800;2023-02-07T17:40:39;3.60;99.90
22779;DHT22;11556;51.194;3.800;2023-02-07T17:43:06;3.60;99.90
22779;DHT22;11556;51.194;3.800;2023-02-07T17:45:33;3.50;99.90
22779;DHT22;11556;51.194;3.800;2023-02-07T17:47:59;3.40;99.90
22779;DHT22;11556;51.194;3.800;2023-02-07T17:50:31;3.40;99.90
22779;DHT22;11556;51.194;3.800;2023-02-07T17:52:57;3.30;99.90
22779;DHT22;11556;51.194;3.800;2023-02-07T17:55:26;3.30;99.90
22779;DHT22;11556;51.194;3.800;2023-02-07T17:57:51;3.30;99.90
22779;DHT22;11556;51.194;3.800;2023-02-07T18:00:21;3.30;99.90
22779;DHT22;11556;51.194;3.800;2023-02-07T18:02:47;3.20;99.90
22779;DHT22;11556;51.194;3.800;2023-02-07T18:05:14;3.20;99.90
22779;DHT22;11556;51.194;3.800;2023-02-07T18:07:39;3.10;99.90
22779;DHT22;11556;51.194;3.800;2023-02-07T18:10:06;3.10;99.90
22779;DHT22;11556;51.194;3.800;2023-02-07T18:12:34;3.10;99.90
22779;DHT22;11556;51.194;3.800;2023-02-07T18:15:00;3.10;99.90
22779;DHT22;11556;51.194;3.800;2023-02-07T18:17:27;3.00;99.90
22779;DHT22;11556;51.194;3.800;2023-02-07T18:19:52;2.90;99.90